Time;durP1;ratioP1;P1;durP2;ratioP2;P2;SDS_P1;SDS_P2;PMS_P1;PMS_P2;Temp;Humidity;BMP_temperature;BMP_pressure;BME280_temperature;BME280_humidity;BME280_pressure;Samples;Min_cycle;Max_cycle;Signal;HPM_P1;HPM_P2
2023/03/20 00:01:20;;;;;;;5.20;2.63;;;9.40;99.90;;;;;;4947051;28;20027;-68
2023/03/20 00:03:46;;;;;;;3.75;2.08;;;9.40;99.90;;;;;;4972406;28;20062;-68
2023/03/20 00:06:21;;;;;;;3.00;1.85;;;9.40;99.90;;;;;;4945614;28;20554;-68
2023/03/20 00:08:50;;;;;;;3.10;1.77;;;9.40;99.90;;;;;;4955547;28;20042;-68
2023/03/20 00:11:40;;;;;;;5.25;2.40;;;9.50;99.90;;;;;;4963088;28;20516;-68
2023/03/20 00:14:09;;;;;;;4.18;1.63;;;9.50;99.90;;;;;;4943582;28;20510;-68
2023/03/20 00:16:39;;;;;;;3.22;1.98;;;9.50;99.90;;;;;;4945618;28;20039;-68
2023/03/20 00:19:13;;;;;;;4.85;2.35;;;9.50;99.90;;;;;;4955086;28;20450;-68
2023/03/20 00:21:39;;;;;;;4.35;2.15;;;9.50;99.90;;;;;;4962509;28;20507;-68
2023/03/20 00:24:06;;;;;;;4.32;1.65;;;9.50;99.90;;;;;;4972296;28;20031;-68
2023/03/20 00:26:35;;;;;;;3.65;2.00;;;9.50;99.90;;;;;;4962488;28;20030;-68
2023/03/20 00:29:03;;;;;;;3.83;2.25;;;9.50;99.90;;;;;;4955189;28;20110;-68
2023/03/20 00:31:36;;;;;;;2.92;1.60;;;9.50;99.90;;;;;;4962459;28;20621;-68
2023/03/20 00:34:11;;;;;;;3.35;2.08;;;9.50;99.90;;;;;;4955258;28;20035;-68
2023/03/20 00:36:37;;;;;;;3.80;1.60;;;9.50;99.90;;;;;;4945620;28;20097;-69
2023/03/20 00:39:03;;;;;;;2.65;1.80;;;9.60;99.90;;;;;;4972006;28;20034;-69
2023/03/20 00:41:38;;;;;;;5.25;1.60;;;9.50;99.90;;;;;;4962160;28;20037;-69
2023/03/20 00:44:37;;;;;;;3.67;2.00;;;9.60;99.90;;;;;;4954450;28;20034;-69
2023/03/20 00:47:16;;;;;;;3.67;2.00;;;9.60;99.90;;;;;;4945615;28;20046;-68
2023/03/20 00:49:44;;;;;;;2.83;1.77;;;9.60;99.90;;;;;;4955585;28;20034;-69
2023/03/20 00:52:13;;;;;;;5.25;1.80;;;9.60;99.90;;;;;;4962253;28;20038;-68
2023/03/20 00:54:39;;;;;;;2.47;1.95;;;9.50;99.90;;;;;;4971743;28;20026;-68
2023/03/20 00:57:19;;;;;;;3.47;2.05;;;9.40;99.90;;;;;;4962204;28;20034;-69
2023/03/20 01:00:01;;;;;;;3.55;1.70;;;9.40;99.90;;;;;;4955764;28;20037;-68
2023/03/20 01:02:29;;;;;;;3.65;1.58;;;9.40;99.90;;;;;;4949005;28;20059;-69
2023/03/20 01:04:56;;;;;;;3.53;1.85;;;9.40;99.90;;;;;;4952272;28;20082;-69
2023/03/20 01:07:21;;;;;;;3.25;1.42;;;9.30;99.90;;;;;;4964564;28;20030;-69
2023/03/20 01:09:47;;;;;;;1.95;1.42;;;9.30;99.90;;;;;;4970842;28;20030;-69
2023/03/20 01:12:15;;;;;;;2.33;1.60;;;9.30;99.90;;;;;;4962619;28;20030;-69
2023/03/20 01:14:42;;;;;;;3.00;1.65;;;9.30;99.90;;;;;;4954304;28;20061;-69
2023/03/20 01:17:19;;;;;;;2.38;1.35;;;9.30;99.90;;;;;;4945061;28;20035;-69
2023/03/20 01:19:45;;;;;;;4.03;1.60;;;9.40;99.90;;;;;;4971915;28;20071;-69
2023/03/20 01:22:13;;;;;;;2.67;1.52;;;9.40;99.90;;;;;;4961818;28;20026;-69
2023/03/20 01:24:39;;;;;;;1.75;1.17;;;9.40;99.90;;;;;;4972931;28;20030;-69
2023/03/20 01:27:19;;;;;;;4.78;1.50;;;9.40;99.90;;;;;;4965545;28;20027;-69
2023/03/20 01:29:45;;;;;;;3.10;1.90;;;9.40;99.90;;;;;;4975840;28;20498;-67
2023/03/20 01:32:15;;;;;;;3.08;1.92;;;9.40;99.90;;;;;;4965860;28;20034;-68
2023/03/20 01:34:42;;;;;;;3.97;1.70;;;9.40;99.90;;;;;;4958408;28;20049;-68
2023/03/20 01:37:21;;;;;;;4.10;1.88;;;9.40;99.90;;;;;;4965792;28;20637;-69
2023/03/20 01:39:47;;;;;;;1.77;1.23;;;9.30;99.90;;;;;;4958803;28;20027;-68
2023/03/20 01:42:15;;;;;;;3.40;1.42;;;9.30;99.90;;;;;;4966003;28;20033;-68
2023/03/20 01:44:41;;;;;;;3.08;1.33;;;9.40;99.90;;;;;;4957838;28;20030;-68
2023/03/20 01:47:23;;;;;;;2.53;1.63;;;9.40;99.90;;;;;;4965405;28;20031;-69
2023/03/20 01:50:25;;;;;;;2.75;1.60;;;9.30;99.90;;;;;;4974740;28;20031;-69
2023/03/20 01:53:15;;;;;;;1.98;1.10;;;9.40;99.90;;;;;;4958599;28;20034;-69
2023/03/20 01:55:42;;;;;;;3.45;1.83;;;9.40;99.90;;;;;;4948763;28;20050;-69
2023/03/20 01:58:20;;;;;;;3.42;1.17;;;9.40;99.90;;;;;;4957739;28;20034;-68
2023/03/20 02:00:47;;;;;;;3.85;2.00;;;9.40;99.90;;;;;;4965715;28;20110;-69
2023/03/20 02:03:14;;;;;;;3.08;1.60;;;9.40;99.90;;;;;;4974545;28;20078;-68
2023/03/20 02:05:42;;;;;;;3.83;2.17;;;9.40;99.90;;;;;;4937098;28;20039;-68
2023/03/20 02:08:27;;;;;;;2.95;1.50;;;9.40;99.90;;;;;;4937001;28;20030;-68
2023/03/20 02:10:53;;;;;;;2.08;1.40;;;9.30;99.90;;;;;;4941963;28;20046;-68
2023/03/20 02:13:19;;;;;;;3.85;2.03;;;9.40;99.90;;;;;;4974286;28;20097;-68
2023/03/20 02:16:08;;;;;;;1.45;1.17;;;9.40;99.90;;;;;;4944992;28;20065;-68
2023/03/20 02:18:34;;;;;;;2.30;1.52;;;9.30;99.90;;;;;;4974704;28;20039;-68
2023/03/20 02:21:03;;;;;;;2.65;1.45;;;9.30;99.90;;;;;;4947813;28;20073;-68
2023/03/20 02:24:05;;;;;;;3.22;1.70;;;9.30;99.90;;;;;;4970167;28;20038;-68
2023/03/20 02:27:08;;;;;;;3.58;1.60;;;9.30;99.90;;;;;;4959496;28;20627;-68
2023/03/20 02:29:49;;;;;;;2.97;1.70;;;9.30;99.90;;;;;;4974507;28;20027;-68
2023/03/20 02:32:54;;;;;;;1.90;1.30;;;9.30;99.90;;;;;;4965509;28;20041;-68
2023/03/20 02:35:47;;;;;;;4.97;1.48;;;9.40;99.90;;;;;;4908588;29;20067;-69
2023/03/20 02:38:34;;;;;;;2.88;2.03;;;9.50;99.90;;;;;;4938308;28;20031;-69
2023/03/20 02:41:27;;;;;;;3.13;1.38;;;9.50;99.90;;;;;;4967655;28;20781;-68
2023/03/20 02:44:34;;;;;;;3.55;1.75;;;9.60;99.90;;;;;;4941592;28;20062;-67
2023/03/20 02:47:12;;;;;;;5.38;2.08;;;9.60;99.90;;;;;;4964418;28;20029;-68
2023/03/20 02:50:01;;;;;;;2.13;1.27;;;9.60;99.90;;;;;;4974103;28;20049;-68
2023/03/20 02:52:37;;;;;;;3.08;1.60;;;9.60;99.90;;;;;;4968045;28;20427;-67
2023/03/20 02:55:25;;;;;;;2.58;1.60;;;9.60;99.90;;;;;;4969697;28;20089;-67
2023/03/20 02:58:08;;;;;;;2.70;1.88;;;9.60;99.90;;;;;;4957977;28;20391;-69
2023/03/20 03:00:48;;;;;;;2.67;1.48;;;9.60;99.90;;;;;;4948615;28;20087;-68
2023/03/20 03:03:27;;;;;;;2.92;1.60;;;9.60;99.90;;;;;;4957435;28;20037;-69
2023/03/20 03:06:05;;;;;;;2.85;1.70;;;9.70;99.90;;;;;;4970827;23;20054;-68
2023/03/20 03:08:39;;;;;;;3.53;1.58;;;9.70;99.90;;;;;;4976040;28;20040;-68
2023/03/20 03:11:07;;;;;;;2.47;1.15;;;9.70;99.90;;;;;;4975946;28;20497;-68
2023/03/20 03:13:42;;;;;;;4.22;1.95;;;9.60;99.90;;;;;;4967172;28;20044;-68
2023/03/20 03:16:18;;;;;;;3.83;1.63;;;9.60;99.90;;;;;;4983441;28;20019;-68
2023/03/20 03:18:45;;;;;;;3.55;1.40;;;9.60;99.90;;;;;;4967949;28;20030;-69
2023/03/20 03:21:15;;;;;;;2.15;1.08;;;9.60;99.90;;;;;;4973062;28;20105;-68
2023/03/20 03:23:48;;;;;;;2.33;1.30;;;9.70;99.90;;;;;;4984464;28;20034;-68
2023/03/20 03:26:30;;;;;;;3.05;1.27;;;9.80;99.90;;;;;;4990476;28;20098;-69
2023/03/20 03:29:01;;;;;;;2.95;1.27;;;9.80;99.90;;;;;;4968588;28;20120;-69
2023/03/20 03:31:28;;;;;;;4.82;1.48;;;9.80;99.90;;;;;;4973276;28;20031;-69
2023/03/20 03:33:57;;;;;;;4.13;1.38;;;9.80;99.90;;;;;;4967795;28;20162;-68
2023/03/20 03:36:57;;;;;;;3.55;1.63;;;9.60;99.90;;;;;;4972916;28;20045;-69
2023/03/20 03:40:23;;;;;;;2.95;1.35;;;9.60;99.90;;;;;;4988861;28;20454;-69
2023/03/20 03:43:08;;;;;;;4.10;1.27;;;9.70;99.90;;;;;;4974149;28;20043;-69
2023/03/20 03:46:16;;;;;;;3.03;1.48;;;9.70;99.90;;;;;;4958625;28;20014;-68
2023/03/20 03:48:51;;;;;;;2.70;1.50;;;9.70;99.90;;;;;;4968956;28;20438;-69
2023/03/20 03:51:22;;;;;;;1.85;1.20;;;9.70;99.90;;;;;;4972757;28;20043;-69
2023/03/20 03:54:02;;;;;;;2.65;1.20;;;9.60;99.90;;;;;;4966893;28;20038;-69
2023/03/20 03:56:33;;;;;;;7.28;1.65;;;9.60;99.90;;;;;;4953522;28;20027;-69
2023/03/20 03:59:07;;;;;;;2.78;1.40;;;9.60;99.90;;;;;;4978314;28;20047;-69
2023/03/20 04:01:36;;;;;;;2.10;1.05;;;9.60;99.90;;;;;;4964543;28;20042;-69
2023/03/20 04:04:08;;;;;;;3.40;1.30;;;9.50;99.90;;;;;;4985305;28;20042;-69
2023/03/20 04:06:34;;;;;;;2.55;1.42;;;9.50;99.90;;;;;;4970975;28;20030;-70
2023/03/20 04:09:00;;;;;;;2.33;1.25;;;9.40;99.90;;;;;;4968213;28;20033;-68
2023/03/20 04:11:29;;;;;;;4.57;1.92;;;9.30;99.90;;;;;;4989632;28;20030;-69
2023/03/20 04:13:55;;;;;;;5.43;1.30;;;9.30;99.90;;;;;;4967662;28;20030;-70
2023/03/20 04:16:23;;;;;;;3.42;1.63;;;9.40;99.90;;;;;;4964525;28;20030;-69
2023/03/20 04:18:50;;;;;;;3.92;1.73;;;9.40;99.90;;;;;;4983576;28;20038;-69
2023/03/20 04:21:16;;;;;;;2.65;1.50;;;9.40;99.90;;;;;;4989449;28;20030;-69
2023/03/20 04:23:42;;;;;;;5.13;2.00;;;9.40;99.90;;;;;;4983352;28;20232;-68
2023/03/20 04:26:08;;;;;;;2.55;1.77;;;9.40;99.90;;;;;;4989194;28;20586;-68
2023/03/20 04:28:34;;;;;;;3.78;1.80;;;9.40;99.90;;;;;;4983514;28;20041;-69
2023/03/20 04:31:01;;;;;;;1.88;1.02;;;9.30;99.90;;;;;;4989291;28;20037;-69
2023/03/20 04:33:27;;;;;;;3.17;1.85;;;9.30;99.90;;;;;;4966152;28;20033;-69
2023/03/20 04:35:54;;;;;;;3.95;1.73;;;9.30;99.90;;;;;;4971895;28;20030;-70
2023/03/20 04:38:21;;;;;;;3.75;1.70;;;9.30;99.90;;;;;;4965804;28;20070;-69
2023/03/20 04:40:48;;;;;;;3.55;1.60;;;9.30;99.90;;;;;;4989420;28;20018;-69
2023/03/20 04:43:15;;;;;;;3.38;2.00;;;9.20;99.90;;;;;;4965740;28;20394;-69
2023/03/20 04:45:41;;;;;;;2.75;1.45;;;9.20;99.90;;;;;;4989289;28;20026;-70
2023/03/20 04:48:07;;;;;;;3.25;1.70;;;9.10;99.90;;;;;;4965874;28;20475;-69
2023/03/20 04:50:33;;;;;;;7.68;2.65;;;9.10;99.90;;;;;;4988874;28;20035;-69
2023/03/20 04:52:59;;;;;;;3.05;1.88;;;9.10;99.90;;;;;;4983077;28;20037;-69
2023/03/20 04:55:25;;;;;;;5.30;2.35;;;9.10;99.90;;;;;;4989034;28;20041;-69
2023/03/20 04:57:51;;;;;;;2.90;1.75;;;9.20;99.90;;;;;;4962587;28;20031;-69
2023/03/20 05:00:17;;;;;;;7.00;3.38;;;9.20;99.90;;;;;;4972024;28;20034;-70
2023/03/20 05:02:44;;;;;;;4.70;1.88;;;9.20;99.90;;;;;;4965777;28;20539;-69
2023/03/20 05:05:10;;;;;;;2.80;1.52;;;9.20;99.90;;;;;;4973095;28;20029;-69
2023/03/20 05:07:36;;;;;;;4.65;1.92;;;9.20;99.90;;;;;;4981112;28;20031;-68
2023/03/20 05:10:04;;;;;;;4.47;2.47;;;9.20;99.90;;;;;;4974043;28;20030;-68
2023/03/20 05:12:29;;;;;;;4.47;2.20;;;9.20;99.90;;;;;;4980531;28;20459;-68
2023/03/20 05:14:55;;;;;;;5.25;1.67;;;9.20;99.90;;;;;;4967390;28;20022;-69
2023/03/20 05:17:22;;;;;;;7.40;2.85;;;9.20;99.90;;;;;;4980087;28;20091;-69
2023/03/20 05:19:51;;;;;;;7.00;2.38;;;9.20;99.90;;;;;;4973476;28;20118;-68
2023/03/20 05:22:17;;;;;;;4.28;1.90;;;9.20;99.90;;;;;;4981697;28;20106;-69
2023/03/20 05:24:43;;;;;;;5.10;2.03;;;9.20;99.90;;;;;;4972133;28;20026;-69
2023/03/20 05:27:10;;;;;;;4.38;1.85;;;9.30;99.90;;;;;;4982864;28;20039;-68
2023/03/20 05:29:36;;;;;;;6.07;1.73;;;9.40;99.90;;;;;;4971865;28;20121;-68
2023/03/20 05:32:02;;;;;;;5.10;2.53;;;9.40;99.90;;;;;;4983416;28;20042;-69
2023/03/20 05:34:28;;;;;;;5.25;2.30;;;9.50;99.90;;;;;;4981262;28;20042;-69
2023/03/20 05:36:54;;;;;;;4.43;2.85;;;9.40;99.90;;;;;;4977545;28;20598;-69
2023/03/20 05:39:21;;;;;;;5.93;2.40;;;9.40;99.90;;;;;;4984689;28;20394;-71
2023/03/20 05:41:46;;;;;;;3.38;1.80;;;9.30;99.90;;;;;;4984687;28;20049;-75
2023/03/20 05:44:12;;;;;;;8.50;2.78;;;9.40;99.90;;;;;;4995149;28;20023;-71
2023/03/20 05:46:38;;;;;;;5.05;2.28;;;9.30;99.90;;;;;;4978088;28;20033;-71
2023/03/20 05:49:04;;;;;;;6.05;2.38;;;9.30;99.90;;;;;;4980449;28;20046;-71
2023/03/20 05:51:30;;;;;;;4.57;2.60;;;9.30;99.90;;;;;;4980137;28;20045;-71
2023/03/20 05:53:55;;;;;;;5.60;2.50;;;9.30;99.90;;;;;;4981216;28;20038;-72
2023/03/20 05:56:21;;;;;;;5.10;2.10;;;9.30;99.90;;;;;;4978430;28;20501;-71
2023/03/20 05:58:47;;;;;;;6.63;2.85;;;9.30;99.90;;;;;;4962639;28;20030;-71
2023/03/20 06:01:17;;;;;;;5.20;2.53;;;9.30;99.90;;;;;;4980330;28;20418;-70
2023/03/20 06:03:42;;;;;;;5.10;2.28;;;9.40;99.90;;;;;;4980104;28;20027;-72
2023/03/20 06:06:08;;;;;;;3.95;2.22;;;9.40;99.90;;;;;;4980136;28;20249;-72
2023/03/20 06:08:35;;;;;;;5.47;2.05;;;9.40;99.90;;;;;;4977364;28;20102;-71
2023/03/20 06:11:02;;;;;;;5.13;2.35;;;9.50;99.90;;;;;;4982307;28;20057;-71
2023/03/20 06:13:28;;;;;;;6.07;2.60;;;9.50;99.90;;;;;;4981508;28;20030;-72
2023/03/20 06:15:55;;;;;;;5.30;2.65;;;9.50;99.90;;;;;;4966572;28;20050;-72
2023/03/20 06:18:20;;;;;;;7.00;2.40;;;9.70;99.90;;;;;;4984951;28;20728;-71
2023/03/20 06:20:52;;;;;;;10.70;4.05;;;9.70;99.90;;;;;;4991530;28;20026;-71
2023/03/20 06:23:18;;;;;;;6.78;3.65;;;9.80;99.90;;;;;;4972772;28;20089;-71
2023/03/20 06:25:44;;;;;;;5.55;3.00;;;9.60;99.90;;;;;;4959874;28;20434;-70
2023/03/20 06:28:10;;;;;;;7.15;3.17;;;9.70;99.90;;;;;;4985853;28;20049;-70
2023/03/20 06:30:36;;;;;;;7.53;3.17;;;9.80;99.90;;;;;;4990748;28;20061;-71
2023/03/20 06:33:03;;;;;;;4.43;2.60;;;9.90;99.90;;;;;;4968009;28;20049;-69
2023/03/20 06:35:30;;;;;;;11.77;3.75;;;9.80;99.90;;;;;;4991133;28;20140;-69
2023/03/20 06:37:57;;;;;;;6.70;3.13;;;9.80;99.90;;;;;;4985827;28;20088;-71
2023/03/20 06:40:22;;;;;;;10.15;3.65;;;9.70;99.90;;;;;;4973556;28;20537;-73
2023/03/20 06:42:48;;;;;;;5.28;2.53;;;9.80;99.90;;;;;;4967639;28;20033;-72
2023/03/20 06:45:14;;;;;;;6.38;2.95;;;9.80;99.90;;;;;;4992654;28;20073;-72
2023/03/20 06:47:40;;;;;;;5.18;3.00;;;9.70;99.90;;;;;;4983798;28;20034;-73
2023/03/20 06:50:07;;;;;;;12.05;3.30;;;9.70;99.90;;;;;;4975783;28;20036;-72
2023/03/20 06:52:34;;;;;;;6.82;3.55;;;9.70;99.90;;;;;;4967576;28;20030;-72
2023/03/20 06:55:00;;;;;;;9.18;3.67;;;9.70;99.90;;;;;;4975515;28;20026;-73
2023/03/20 06:57:26;;;;;;;4.97;2.42;;;9.70;99.90;;;;;;4982722;28;20487;-73
2023/03/20 06:59:52;;;;;;;7.68;4.43;;;9.80;99.90;;;;;;4975588;28;20109;-73
2023/03/20 07:02:19;;;;;;;5.53;2.22;;;9.80;99.90;;;;;;4990850;28;20482;-73
2023/03/20 07:04:45;;;;;;;10.27;3.10;;;9.70;99.90;;;;;;4979796;28;20069;-73
2023/03/20 07:07:11;;;;;;;5.75;2.83;;;9.70;99.90;;;;;;4944938;28;20042;-72
2023/03/20 07:09:37;;;;;;;6.28;3.25;;;9.70;99.90;;;;;;4975959;28;20544;-72
2023/03/20 07:12:03;;;;;;;7.03;3.22;;;9.70;99.90;;;;;;4985032;28;20469;-72
2023/03/20 07:14:29;;;;;;;7.95;3.17;;;9.80;99.90;;;;;;4989971;28;20087;-72
2023/03/20 07:16:55;;;;;;;5.20;2.75;;;9.80;99.90;;;;;;4969190;28;20035;-71
2023/03/20 07:19:22;;;;;;;6.82;3.20;;;9.80;99.90;;;;;;4971523;28;20033;-71
2023/03/20 07:21:47;;;;;;;7.30;3.28;;;9.70;99.90;;;;;;4969468;28;20030;-72
2023/03/20 07:24:13;;;;;;;5.88;2.85;;;9.70;99.90;;;;;;4969767;28;20015;-72
2023/03/20 07:26:40;;;;;;;12.25;2.80;;;9.70;99.90;;;;;;4998632;28;20045;-72
2023/03/20 07:29:06;;;;;;;7.65;3.28;;;9.80;99.90;;;;;;4998292;28;20391;-72
2023/03/20 07:31:32;;;;;;;8.75;3.78;;;9.80;99.90;;;;;;4989355;28;20034;-72
2023/03/20 07:33:58;;;;;;;6.32;2.50;;;9.90;99.90;;;;;;4985166;28;20038;-72
2023/03/20 07:36:24;;;;;;;5.13;2.53;;;9.90;99.90;;;;;;4985791;28;20399;-72
2023/03/20 07:38:49;;;;;;;8.88;3.50;;;9.90;99.90;;;;;;4963864;28;20459;-71
2023/03/20 07:41:15;;;;;;;15.05;4.80;;;10.00;99.90;;;;;;4989927;28;20041;-72
2023/03/20 07:43:41;;;;;;;25.50;5.10;;;9.90;99.90;;;;;;4975006;28;20044;-69
2023/03/20 07:46:08;;;;;;;7.75;3.42;;;10.00;99.90;;;;;;4964348;28;20498;-71
2023/03/20 07:48:35;;;;;;;8.88;3.88;;;10.10;99.90;;;;;;4983012;28;20478;-71
2023/03/20 07:51:01;;;;;;;8.55;3.08;;;10.10;99.90;;;;;;4968003;28;20427;-71
2023/03/20 07:53:27;;;;;;;7.82;3.35;;;10.10;99.90;;;;;;4980434;28;20076;-71
2023/03/20 07:55:52;;;;;;;8.52;4.07;;;10.20;99.90;;;;;;4989109;28;20036;-72
2023/03/20 07:58:18;;;;;;;7.00;2.58;;;10.30;99.90;;;;;;4981748;28;20125;-71
2023/03/20 08:00:44;;;;;;;5.97;3.30;;;10.30;99.90;;;;;;4975517;28;20975;-72
2023/03/20 08:03:10;;;;;;;10.15;4.28;;;10.20;99.90;;;;;;4954282;28;20398;-72
2023/03/20 08:05:36;;;;;;;10.77;3.42;;;10.10;99.90;;;;;;4963205;28;20069;-72
2023/03/20 08:08:02;;;;;;;23.67;3.05;;;10.20;99.90;;;;;;4961889;28;20047;-72
2023/03/20 08:10:28;;;;;;;7.03;3.65;;;10.20;99.90;;;;;;4973879;28;20048;-72
2023/03/20 08:12:55;;;;;;;6.70;3.20;;;10.10;99.90;;;;;;4961816;28;20487;-71
2023/03/20 08:15:20;;;;;;;7.88;3.58;;;10.10;99.90;;;;;;4981250;28;20082;-72
2023/03/20 08:17:46;;;;;;;7.38;3.60;;;10.10;99.90;;;;;;4952320;28;20054;-73
2023/03/20 08:20:15;;;;;;;14.57;4.60;;;10.10;99.90;;;;;;4981156;28;20028;-71
2023/03/20 08:22:41;;;;;;;8.18;3.85;;;10.20;99.90;;;;;;4945115;28;20129;-72
2023/03/20 08:25:08;;;;;;;7.75;3.30;;;10.20;99.90;;;;;;4954768;28;20454;-72
2023/03/20 08:27:35;;;;;;;10.60;3.80;;;10.30;99.90;;;;;;4963866;28;20471;-72
2023/03/20 08:30:02;;;;;;;12.55;4.88;;;10.30;99.90;;;;;;4973787;28;20117;-72
2023/03/20 08:32:28;;;;;;;12.82;4.07;;;10.30;99.90;;;;;;4964754;28;20043;-72
2023/03/20 08:34:54;;;;;;;18.70;3.72;;;10.30;99.90;;;;;;4988401;28;20386;-72
2023/03/20 08:37:21;;;;;;;12.60;5.00;;;10.30;99.90;;;;;;4980449;28;20125;-72
2023/03/20 08:39:47;;;;;;;15.98;5.53;;;10.20;99.90;;;;;;4990554;28;20038;-72
2023/03/20 08:42:13;;;;;;;15.43;3.67;;;10.20;99.90;;;;;;4983048;28;20050;-71
2023/03/20 08:44:39;;;;;;;14.57;4.68;;;10.30;99.90;;;;;;4989515;28;20026;-73
2023/03/20 08:47:06;;;;;;;9.63;4.05;;;10.30;99.90;;;;;;4983907;28;20035;-72
2023/03/20 08:49:33;;;;;;;9.75;3.63;;;10.30;99.90;;;;;;4971620;28;20144;-72
2023/03/20 08:51:59;;;;;;;12.38;4.00;;;10.40;99.90;;;;;;4984738;28;20141;-71
2023/03/20 08:54:25;;;;;;;10.73;4.25;;;10.50;99.90;;;;;;4965253;28;20034;-70
2023/03/20 08:56:51;;;;;;;16.13;3.63;;;10.50;99.90;;;;;;4980152;28;20034;-70
2023/03/20 08:59:18;;;;;;;13.57;3.92;;;10.50;99.90;;;;;;4968941;28;20042;-71
2023/03/20 09:01:44;;;;;;;6.72;3.50;;;10.50;99.90;;;;;;4980699;28;20117;-73
2023/03/20 09:04:14;;;;;;;8.82;3.40;;;10.60;99.90;;;;;;4985017;28;20029;-69
2023/03/20 09:06:40;;;;;;;12.55;4.95;;;10.60;99.90;;;;;;4976649;23;20046;-77
2023/03/20 09:09:07;;;;;;;14.88;4.85;;;10.60;99.90;;;;;;4964288;28;20485;-75
2023/03/20 09:11:33;;;;;;;9.70;3.42;;;10.60;99.90;;;;;;4941497;28;20028;-71
2023/03/20 09:13:59;;;;;;;14.90;4.10;;;10.60;99.90;;;;;;4978772;28;20030;-75
2023/03/20 09:16:25;;;;;;;14.75;3.90;;;10.60;99.90;;;;;;4957501;28;20458;-74
2023/03/20 09:18:51;;;;;;;14.75;5.07;;;10.70;99.90;;;;;;4965331;28;20030;-77
2023/03/20 09:21:17;;;;;;;14.15;5.80;;;10.70;99.90;;;;;;4990121;28;20089;-73
2023/03/20 09:23:43;;;;;;;14.57;4.18;;;10.70;99.90;;;;;;4964862;28;20101;-73
2023/03/20 09:26:09;;;;;;;13.43;3.78;;;10.90;99.90;;;;;;4990359;28;20034;-74
2023/03/20 09:28:34;;;;;;;10.75;4.25;;;10.90;99.90;;;;;;4964855;28;20030;-73
2023/03/20 09:31:00;;;;;;;12.38;4.85;;;11.00;99.90;;;;;;4990166;28;20034;-73
2023/03/20 09:33:27;;;;;;;8.23;4.68;;;11.10;99.90;;;;;;4981942;28;20031;-73
2023/03/20 09:35:52;;;;;;;11.32;4.45;;;11.30;99.90;;;;;;4990194;28;20204;-73
2023/03/20 09:38:20;;;;;;;10.50;3.63;;;11.40;99.90;;;;;;4983698;28;20505;-74
2023/03/20 09:40:57;;;;;;;6.47;2.70;;;11.60;99.90;;;;;;4989184;28;20099;-74
2023/03/20 09:44:04;;;;;;;6.35;3.05;;;11.70;99.90;;;;;;4982713;28;20034;-74
2023/03/20 09:47:07;;;;;;;6.55;3.15;;;12.00;99.90;;;;;;4973532;28;20038;-74
2023/03/20 09:50:04;;;;;;;9.20;3.00;;;12.00;99.90;;;;;;4986157;28;20386;-73
2023/03/20 09:52:37;;;;;;;7.18;3.00;;;12.00;99.90;;;;;;4986389;28;20030;-73
2023/03/20 09:55:13;;;;;;;6.35;2.90;;;12.00;99.90;;;;;;4969566;28;20040;-73
2023/03/20 09:57:50;;;;;;;7.65;3.08;;;12.00;99.90;;;;;;4971713;28;20520;-46
2023/03/20 10:00:25;;;;;;;8.07;3.38;;;12.20;99.90;;;;;;4986289;28;20047;-75
2023/03/20 10:03:38;;;;;;;18.85;5.18;;;12.00;99.90;;;;;;4982772;28;20034;-80
2023/03/20 10:06:10;;;;;;;11.70;3.83;;;12.00;99.90;;;;;;4959671;28;20074;-73
2023/03/20 10:08:38;;;;;;;8.93;3.47;;;11.90;99.90;;;;;;4969807;28;20057;-73
2023/03/20 10:11:48;;;;;;;6.80;3.15;;;11.80;99.90;;;;;;4968240;28;20070;-69
2023/03/20 10:14:47;;;;;;;6.65;3.00;;;12.00;99.90;;;;;;4982390;28;20453;-70
2023/03/20 10:18:01;;;;;;;11.13;3.97;;;12.20;99.90;;;;;;4985501;28;20038;-73
2023/03/20 10:20:40;;;;;;;7.57;3.47;;;12.20;99.90;;;;;;4985009;28;20035;-68
2023/03/20 10:23:21;;;;;;;10.40;3.88;;;12.20;99.90;;;;;;4964966;28;20510;-69
2023/03/20 10:26:16;;;;;;;6.38;2.95;;;12.30;99.90;;;;;;4966609;28;20038;-71
2023/03/20 10:28:58;;;;;;;7.22;2.80;;;12.30;99.90;;;;;;4957806;28;20467;-70
2023/03/20 10:31:56;;;;;;;7.82;2.85;;;12.50;99.90;;;;;;4967036;28;20035;-71
2023/03/20 10:34:56;;;;;;;6.65;2.65;;;12.40;99.90;;;;;;4985390;28;20089;-69
2023/03/20 10:37:51;;;;;;;6.93;3.72;;;12.30;99.90;;;;;;4967415;28;20041;-70
2023/03/20 10:40:30;;;;;;;6.32;2.85;;;12.30;99.90;;;;;;4968926;28;20085;-73
2023/03/20 10:43:23;;;;;;;9.55;3.28;;;12.00;99.90;;;;;;4968602;28;20058;-71
2023/03/20 10:46:12;;;;;;;11.65;3.58;;;11.90;99.90;;;;;;4971004;28;20125;-69
2023/03/20 10:48:56;;;;;;;6.88;3.58;;;12.00;99.90;;;;;;4968903;28;20113;-75
2023/03/20 10:51:35;;;;;;;10.65;3.78;;;11.80;99.90;;;;;;4965545;28;20046;-71
2023/03/20 10:54:04;;;;;;;11.18;2.88;;;11.90;99.90;;;;;;4962657;28;20026;-75
2023/03/20 10:56:46;;;;;;;9.63;2.67;;;11.80;99.90;;;;;;4956827;28;20031;-70
2023/03/20 10:59:27;;;;;;;9.90;3.63;;;11.70;99.90;;;;;;4970706;28;20065;-71
2023/03/20 11:01:53;;;;;;;13.05;4.15;;;11.80;99.90;;;;;;4975558;28;20054;-73
2023/03/20 11:04:19;;;;;;;11.02;4.03;;;11.70;99.90;;;;;;4966965;28;20057;-71
2023/03/20 11:07:07;;;;;;;11.63;3.90;;;11.70;99.90;;;;;;4986170;28;20041;-73
2023/03/20 11:09:33;;;;;;;8.35;3.70;;;11.80;99.90;;;;;;4975197;28;20038;-72
2023/03/20 11:12:01;;;;;;;9.82;4.10;;;11.90;99.90;;;;;;4992107;28;20509;-72
2023/03/20 11:14:38;;;;;;;9.23;3.05;;;11.90;99.90;;;;;;4964097;28;20098;-72
2023/03/20 11:17:05;;;;;;;12.50;4.43;;;12.40;99.90;;;;;;4975137;28;20034;-73
2023/03/20 11:19:38;;;;;;;9.15;3.55;;;13.10;99.90;;;;;;4984657;28;20062;-71
2023/03/20 11:22:28;;;;;;;8.32;3.28;;;13.90;99.90;;;;;;4967866;28;20042;-74
2023/03/20 11:25:00;;;;;;;8.25;3.72;;;13.90;99.90;;;;;;4985080;28;20054;-76
2023/03/20 11:27:32;;;;;;;8.88;3.42;;;14.40;99.90;;;;;;4968574;28;20083;-74
2023/03/20 11:30:04;;;;;;;12.48;3.63;;;13.70;99.90;;;;;;4968808;28;20034;-75
2023/03/20 11:32:39;;;;;;;4.45;2.40;;;13.90;99.90;;;;;;4948197;28;20072;-77
2023/03/20 11:35:27;;;;;;;6.10;2.90;;;13.90;99.90;;;;;;4969340;28;20031;-75
2023/03/20 11:38:06;;;;;;;8.77;3.42;;;13.80;99.90;;;;;;4984791;28;20030;-71
2023/03/20 11:40:32;;;;;;;5.93;2.60;;;14.10;99.90;;;;;;4974082;28;20042;-74
2023/03/20 11:43:02;;;;;;;7.35;2.78;;;14.20;99.90;;;;;;4987078;28;20031;-73
2023/03/20 11:45:38;;;;;;;6.50;3.17;;;14.60;99.90;;;;;;4989067;28;20023;-75
2023/03/20 11:48:11;;;;;;;7.85;2.85;;;14.50;99.90;;;;;;4963990;28;20053;-74
2023/03/20 11:50:45;;;;;;;10.10;2.97;;;14.60;99.90;;;;;;4973345;28;20030;-74
2023/03/20 11:53:26;;;;;;;5.38;2.38;;;14.30;99.90;;;;;;4963354;28;20018;-75
2023/03/20 11:56:24;;;;;;;6.28;2.90;;;14.10;99.90;;;;;;4974662;28;20042;-74
2023/03/20 11:58:55;;;;;;;16.85;7.22;;;14.50;99.90;;;;;;4962285;28;20124;-75
2023/03/20 12:01:21;;;;;;;6.00;2.80;;;14.20;99.90;;;;;;4955518;28;20035;-75
2023/03/20 12:03:56;;;;;;;6.55;2.88;;;14.20;99.90;;;;;;4982369;28;20034;-75
2023/03/20 12:06:27;;;;;;;4.85;2.03;;;14.30;99.90;;;;;;4974079;28;20394;-71
2023/03/20 12:09:23;;;;;;;5.50;2.13;;;14.20;99.90;;;;;;4973842;28;20486;-75
2023/03/20 12:11:58;;;;;;;6.75;2.30;;;14.10;99.90;;;;;;4983639;28;20109;-76
2023/03/20 12:14:50;;;;;;;8.15;2.30;;;14.30;99.90;;;;;;4951993;28;20045;-75
2023/03/20 12:17:41;;;;;;;5.32;2.15;;;14.80;99.90;;;;;;4966574;28;20061;-75
2023/03/20 12:20:42;;;;;;;4.88;1.88;;;15.60;99.90;;;;;;4985549;28;20045;-76
2023/03/20 12:23:08;;;;;;;10.10;2.70;;;16.40;99.90;;;;;;4966616;28;20104;-76
2023/03/20 12:26:13;;;;;;;4.43;1.92;;;15.70;99.90;;;;;;4981956;28;20352;-76
2023/03/20 12:29:20;;;;;;;4.97;1.75;;;15.60;99.90;;;;;;4959426;28;20392;-76
2023/03/20 12:31:57;;;;;;;4.90;2.13;;;16.00;99.90;;;;;;4983401;28;20077;-75
2023/03/20 12:34:46;;;;;;;2.63;1.40;;;15.90;99.90;;;;;;4969002;28;20034;-76
2023/03/20 12:37:13;;;;;;;4.05;2.28;;;15.80;99.90;;;;;;4974136;28;20520;-75
2023/03/20 12:39:55;;;;;;;5.50;1.85;;;15.80;99.90;;;;;;4966145;28;20039;-74
2023/03/20 12:42:39;;;;;;;9.10;2.60;;;15.30;99.90;;;;;;4970612;28;20121;-74
2023/03/20 12:45:20;;;;;;;6.03;1.70;;;14.90;99.90;;;;;;4979887;28;20042;-83
2023/03/20 12:48:08;;;;;;;6.43;2.15;;;14.70;99.90;;;;;;4960388;28;20038;-78
2023/03/20 12:50:40;;;;;;;7.70;2.65;;;14.50;99.90;;;;;;4963459;28;20109;-76
2023/03/20 12:53:12;;;;;;;3.92;1.67;;;14.50;99.90;;;;;;4957134;28;20555;-73
2023/03/20 12:56:18;;;;;;;4.88;1.80;;;14.40;99.90;;;;;;4986211;28;20061;-74
2023/03/20 12:59:03;;;;;;;3.25;1.63;;;14.40;99.90;;;;;;4979157;28;20038;-71
2023/03/20 13:01:33;;;;;;;5.05;1.80;;;14.50;99.90;;;;;;4982653;28;20022;-70
2023/03/20 13:04:24;;;;;;;9.23;2.60;;;14.50;99.90;;;;;;4967427;28;20022;-71
2023/03/20 13:07:14;;;;;;;12.32;3.50;;;14.50;99.90;;;;;;4988302;28;20112;-71
2023/03/20 13:10:11;;;;;;;10.40;3.37;;;14.80;99.90;;;;;;4946019;28;20049;-71
2023/03/20 13:13:10;;;;;;;13.60;3.55;;;14.90;99.90;;;;;;4971688;28;20064;-71
2023/03/20 13:16:11;;;;;;;3.50;1.60;;;15.30;99.90;;;;;;4980644;28;20047;-71
2023/03/20 13:19:16;;;;;;;10.90;3.17;;;16.20;97.70;;;;;;4959773;28;20050;-71
2023/03/20 13:21:54;;;;;;;3.90;1.45;;;16.80;96.10;;;;;;4984493;28;20523;-69
2023/03/20 13:24:53;;;;;;;3.03;1.40;;;17.10;94.50;;;;;;4983999;28;20057;-69